createdAt,value
2022-08-24T00:01:28.782Z,18.97
2022-08-24T00:06:32.962Z,19.03
2022-08-24T00:11:35.506Z,16.83
2022-08-24T00:16:38.199Z,18.83
2022-08-24T00:21:40.589Z,19.83
2022-08-24T00:26:42.979Z,17.30
2022-08-24T00:31:45.540Z,17.43
2022-08-24T00:36:48.440Z,16.27
2022-08-24T00:41:52.257Z,19.60
2022-08-24T00:47:03.683Z,21.30
2022-08-24T00:52:32.583Z,16.33
2022-08-24T00:57:40.099Z,17.87
2022-08-24T01:02:45.710Z,16.10
2022-08-24T01:07:49.589Z,19.70
2022-08-24T01:13:01.072Z,23.40
2022-08-24T01:18:25.041Z,23.87
2022-08-24T01:23:42.948Z,26.67
2022-08-24T01:28:49.736Z,31.40
2022-08-24T01:33:55.437Z,32.47
2022-08-24T01:39:09.822Z,35.20
2022-08-24T01:44:13.716Z,37.50
2022-08-24T01:49:16.975Z,33.37
2022-08-24T01:54:19.698Z,33.13
2022-08-24T01:59:22.746Z,28.17
2022-08-24T02:04:25.216Z,31.07
2022-08-24T02:09:30.452Z,30.83
2022-08-24T02:14:37.417Z,29.10
2022-08-24T02:19:40.405Z,32.07
2022-08-24T02:24:43.470Z,26.07
2022-08-24T02:29:46.417Z,30.33
2022-08-24T02:34:49.208Z,24.13
2022-08-24T02:39:53.340Z,26.17
2022-08-24T02:44:57.603Z,23.77
2022-08-24T02:50:02.477Z,24.63
2022-08-24T02:55:08.736Z,30.07
2022-08-24T03:00:15.792Z,22.97
2022-08-24T03:05:26.274Z,22.53
2022-08-24T03:10:29.575Z,23.07
2022-08-24T03:15:32.210Z,24.23
2022-08-24T03:20:34.828Z,28.33
2022-08-24T03:25:37.238Z,29.20
2022-08-24T03:30:40.611Z,26.77
2022-08-24T03:35:45.330Z,24.00
2022-08-24T03:40:50.100Z,22.17
2022-08-24T03:45:52.584Z,24.30
2022-08-24T03:50:55.340Z,23.17
2022-08-24T03:55:58.392Z,29.63
2022-08-24T04:01:01.459Z,24.77
2022-08-24T04:06:05.674Z,17.83
2022-08-24T04:11:15.904Z,20.57
2022-08-24T04:16:21.474Z,21.50
2022-08-24T04:21:35.480Z,22.73
2022-08-24T04:26:45.486Z,18.63
2022-08-24T04:31:52.249Z,26.43
2022-08-24T04:36:55.074Z,23.87
2022-08-24T04:41:58.976Z,20.97
2022-08-24T04:47:09.889Z,23.67
2022-08-24T04:52:14.042Z,23.03
2022-08-24T04:57:18.577Z,23.80
2022-08-24T05:02:22.859Z,21.53
2022-08-24T05:07:27.098Z,19.13
2022-08-24T05:12:29.867Z,21.13
2022-08-24T05:17:36.108Z,20.87
2022-08-24T05:22:38.590Z,17.87
2022-08-24T05:27:41.433Z,20.60
2022-08-24T05:32:43.977Z,24.00
2022-08-24T05:37:46.563Z,23.73
2022-08-24T05:42:51.940Z,20.50
2022-08-24T05:47:54.958Z,22.23
2022-08-24T05:53:20.251Z,23.50
2022-08-24T05:58:30.835Z,21.50
2022-08-24T06:03:38.883Z,26.70
2022-08-24T06:08:46.342Z,26.50
2022-08-24T06:13:51.865Z,27.60
2022-08-24T06:18:59.738Z,23.90
2022-08-24T06:24:05.187Z,33.43
2022-08-24T06:29:09.260Z,32.80
2022-08-24T06:34:19.949Z,31.00
2022-08-24T06:39:23.839Z,48.00
2022-08-24T06:44:31.183Z,27.30
2022-08-24T06:49:46.851Z,23.77
2022-08-24T06:54:49.205Z,20.80
2022-08-24T06:59:51.629Z,19.37
2022-08-24T07:04:54.772Z,20.40
2022-08-24T07:10:15.854Z,20.27
2022-08-24T07:15:19.709Z,21.07
2022-08-24T07:20:32.843Z,23.67
2022-08-24T07:25:55.883Z,22.93
2022-08-24T07:30:58.788Z,20.40
2022-08-24T07:36:03.094Z,17.17
2022-08-24T07:41:35.583Z,13.60
2022-08-24T07:46:28.786Z,18.60
2022-08-24T07:56:42.519Z,24.80
2022-08-24T08:01:45.248Z,16.27
2022-08-24T08:06:47.937Z,12.07
2022-08-24T08:11:51.082Z,14.20
2022-08-24T08:16:54.333Z,19.57
2022-08-24T08:22:16.447Z,12.13
2022-08-24T08:28:04.216Z,12.20
2022-08-24T08:33:16.298Z,11.13
2022-08-24T08:38:19.247Z,11.47
2022-08-24T08:43:22.136Z,12.37
2022-08-24T08:49:03.692Z,23.40
2022-08-24T08:54:48.388Z,25.93
2022-08-24T09:00:19.209Z,25.37
2022-08-24T09:05:44.193Z,14.93
2022-08-24T09:11:06.415Z,10.83
2022-08-24T09:16:26.256Z,11.80
2022-08-24T09:21:54.245Z,13.70
2022-08-24T09:27:17.548Z,12.03
2022-08-24T09:32:51.456Z,9.63
2022-08-24T09:38:00.207Z,9.13
2022-08-24T09:43:16.244Z,11.73
2022-08-24T09:54:42.048Z,12.20
2022-08-24T09:59:59.718Z,9.00
2022-08-24T10:05:36.375Z,11.30
2022-08-24T10:10:58.631Z,16.50
2022-08-24T10:16:01.785Z,12.93
2022-08-24T10:21:21.204Z,21.30
2022-08-24T10:26:41.714Z,23.40
2022-08-24T10:31:48.657Z,16.20
2022-08-24T10:37:10.344Z,16.17
2022-08-24T10:43:08.910Z,11.73
2022-08-24T10:48:34.623Z,9.60
2022-08-24T10:53:37.661Z,11.73
2022-08-24T10:58:55.199Z,9.00
2022-08-24T11:04:10.079Z,14.67
2022-08-24T11:09:19.975Z,13.13
2022-08-24T11:14:26.792Z,12.87
2022-08-24T11:19:35.210Z,8.57
2022-08-24T11:24:48.773Z,13.53
2022-08-24T11:29:51.442Z,11.53
2022-08-24T11:34:54.025Z,10.17
2022-08-24T11:39:56.656Z,14.43
2022-08-24T11:45:16.014Z,9.03
2022-08-24T11:50:22.141Z,13.10
2022-08-24T11:55:57.224Z,9.20
2022-08-24T12:01:23.608Z,15.33
2022-08-24T12:06:51.288Z,7.33
2022-08-24T12:12:16.407Z,13.07
2022-08-24T12:17:44.562Z,10.07
2022-08-24T12:22:47.724Z,13.37
2022-08-24T12:27:52.398Z,11.17
2022-08-24T12:33:10.830Z,10.33
2022-08-24T12:38:26.959Z,14.83
2022-08-24T12:43:42.325Z,18.63
2022-08-24T12:48:50.981Z,14.60
2022-08-24T12:54:15.927Z,9.23
2022-08-24T12:59:22.641Z,15.77
2022-08-24T13:04:36.864Z,14.10
2022-08-24T13:09:44.957Z,9.85
2022-08-24T13:14:51.061Z,21.50
2022-08-24T13:20:23.589Z,11.93
2022-08-24T13:25:47.487Z,8.50
2022-08-24T13:30:55.898Z,15.33
2022-08-24T13:36:29.418Z,11.20
2022-08-24T13:42:13.141Z,19.63
2022-08-24T13:47:52.552Z,49.37
2022-08-24T13:53:03.882Z,18.05
2022-08-24T13:58:20.243Z,14.40
2022-08-24T14:03:22.918Z,12.07
2022-08-24T14:08:47.067Z,20.70
2022-08-24T14:14:10.097Z,15.07
2022-08-24T14:19:21.035Z,12.88
2022-08-24T14:25:07.703Z,10.95
2022-08-24T14:30:19.212Z,13.88
2022-08-24T14:35:31.834Z,11.20
2022-08-24T14:40:38.491Z,14.38
2022-08-24T14:45:52.775Z,8.73
2022-08-24T14:51:03.919Z,11.32
2022-08-24T14:56:25.060Z,11.40
2022-08-24T15:01:48.372Z,15.52
2022-08-24T15:06:59.028Z,15.02
2022-08-24T15:12:19.531Z,13.88
2022-08-24T15:17:29.026Z,14.73
2022-08-24T15:22:46.538Z,9.88
2022-08-24T15:27:58.412Z,10.80
2022-08-24T15:33:19.968Z,12.23
2022-08-24T15:38:27.977Z,18.00
2022-08-24T15:43:30.891Z,9.65
2022-08-24T15:48:34.223Z,17.30
2022-08-24T15:53:41.696Z,15.50
2022-08-24T15:58:44.261Z,9.77
2022-08-24T16:03:52.931Z,12.18
2022-08-24T16:08:58.157Z,16.43
2022-08-24T16:14:01.019Z,12.53
2022-08-24T16:19:08.759Z,22.53
2022-08-24T16:24:23.412Z,16.73
2022-08-24T16:29:37.881Z,17.70
2022-08-24T16:34:42.915Z,15.23
2022-08-24T16:39:45.792Z,14.07
2022-08-24T16:44:48.403Z,9.67
2022-08-24T16:49:51.606Z,12.97
2022-08-24T16:54:54.044Z,10.77
2022-08-24T16:59:56.724Z,15.07
2022-08-24T17:04:59.468Z,17.63
2022-08-24T17:10:04.117Z,14.03
2022-08-24T17:15:09.620Z,13.93
2022-08-24T17:20:12.147Z,14.07
2022-08-24T17:25:14.654Z,14.87
2022-08-24T17:30:18.533Z,13.33
2022-08-24T17:35:22.347Z,16.90
2022-08-24T17:40:25.930Z,11.23
2022-08-24T17:45:28.714Z,14.20
2022-08-24T17:50:32.022Z,16.17
2022-08-24T17:55:34.649Z,20.73
2022-08-24T18:00:38.165Z,14.70
2022-08-24T18:05:41.291Z,15.87
2022-08-24T18:10:43.895Z,19.50
2022-08-24T18:15:46.403Z,14.23
2022-08-24T18:20:50.979Z,17.03
2022-08-24T18:25:54.088Z,18.43
2022-08-24T18:30:56.727Z,17.77
2022-08-24T18:35:59.327Z,13.73
2022-08-24T18:41:02.107Z,20.80
2022-08-24T18:46:05.956Z,14.87
2022-08-24T18:51:09.603Z,26.87
2022-08-24T18:56:12.807Z,23.43
2022-08-24T19:01:15.504Z,22.77
2022-08-24T19:06:18.067Z,24.27
2022-08-24T19:11:24.225Z,20.47
2022-08-24T19:16:26.809Z,17.10
2022-08-24T19:21:31.856Z,15.83
2022-08-24T19:26:36.449Z,38.03
2022-08-24T19:31:39.223Z,34.93
2022-08-24T19:36:42.020Z,23.33
2022-08-24T19:41:47.500Z,20.07
2022-08-24T19:46:53.173Z,18.60
2022-08-24T19:51:56.173Z,21.80
2022-08-24T19:56:59.878Z,19.70
2022-08-24T20:02:02.382Z,17.70
2022-08-24T20:07:05.052Z,46.47
2022-08-24T20:12:07.991Z,20.77
2022-08-24T20:17:10.612Z,17.57
2022-08-24T20:22:13.626Z,23.60
2022-08-24T20:27:23.250Z,23.27
2022-08-24T20:32:26.143Z,16.50
2022-08-24T20:37:30.335Z,18.77
2022-08-24T20:42:32.964Z,19.40
2022-08-24T20:47:37.947Z,22.03
2022-08-24T20:52:42.279Z,19.13
2022-08-24T20:58:03.668Z,20.60
2022-08-24T21:03:06.606Z,29.80
2022-08-24T21:08:10.667Z,26.87
2022-08-24T21:13:13.131Z,24.93
2022-08-24T21:18:15.902Z,16.63
2022-08-24T21:23:18.332Z,21.20
2022-08-24T21:28:22.081Z,17.47
2022-08-24T21:33:43.082Z,19.60
2022-08-24T21:38:45.588Z,14.23
2022-08-24T21:43:48.149Z,19.37
2022-08-24T21:48:50.805Z,17.07
2022-08-24T21:53:56.954Z,21.63
2022-08-24T21:59:03.197Z,20.23
2022-08-24T22:04:06.739Z,21.30
2022-08-24T22:09:09.645Z,14.73
2022-08-24T22:14:12.471Z,18.67
2022-08-24T22:19:16.781Z,13.90
2022-08-24T22:24:19.237Z,19.90
2022-08-24T22:29:22.538Z,15.47
2022-08-24T22:34:25.443Z,18.30
2022-08-24T22:39:28.784Z,26.30
2022-08-24T22:44:32.298Z,17.90
2022-08-24T22:49:39.930Z,22.30
2022-08-24T22:54:42.760Z,21.67
2022-08-24T22:59:45.186Z,19.23
2022-08-24T23:04:49.949Z,18.50
2022-08-24T23:09:52.369Z,20.93
2022-08-24T23:14:55.299Z,19.17
2022-08-24T23:20:01.187Z,18.63
2022-08-24T23:25:05.464Z,16.97
2022-08-24T23:30:11.694Z,23.23
2022-08-24T23:35:14.118Z,16.73
2022-08-24T23:40:17.375Z,17.13
2022-08-24T23:45:19.872Z,17.10
2022-08-24T23:50:30.759Z,18.33
2022-08-24T23:55:33.199Z,20.73
